createdAt,value
2018-09-26T00:01:01.244Z,101777.83
2018-09-26T00:02:42.363Z,101781.31
2018-09-26T00:04:21.194Z,101772.09
2018-09-26T00:05:56.672Z,101772.89
2018-09-26T00:07:32.235Z,101773.53
2018-09-26T00:09:10.577Z,101773.34
2018-09-26T00:10:46.233Z,101779.56
2018-09-26T00:12:21.760Z,101777.83
2018-09-26T00:13:57.277Z,101784.66
2018-09-26T00:15:32.952Z,101783.86
2018-09-26T00:17:08.597Z,101782.87
2018-09-26T00:18:44.079Z,101787.55
2018-09-26T00:20:20.633Z,101786.05
2018-09-26T00:21:56.141Z,101795.02
2018-09-26T00:23:31.743Z,101794.81
2018-09-26T00:25:07.261Z,101797.95
2018-09-26T00:26:42.782Z,101791.58
2018-09-26T00:28:18.292Z,101793.74
2018-09-26T00:29:53.922Z,101792.78
2018-09-26T00:31:29.431Z,101785.52
2018-09-26T00:33:05.261Z,101783.23
2018-09-26T00:34:40.796Z,101784.55
2018-09-26T00:36:16.387Z,101785.39
2018-09-26T00:37:52.224Z,101787.23
2018-09-26T00:39:27.745Z,101788.72
2018-09-26T00:41:03.276Z,101794.17
2018-09-26T00:42:38.796Z,101796.95
2018-09-26T00:44:14.330Z,101801.27
2018-09-26T00:45:49.890Z,101793.69
2018-09-26T00:47:25.535Z,101784.71
2018-09-26T00:49:01.039Z,101784.30
2018-09-26T00:50:36.595Z,101783.39
2018-09-26T00:52:12.126Z,101787.62
2018-09-26T00:53:47.712Z,101789.36
2018-09-26T00:55:23.212Z,101779.77
2018-09-26T00:56:58.780Z,101776.42
2018-09-26T00:58:34.257Z,101778.48
2018-09-26T01:00:09.762Z,101774.66
2018-09-26T01:01:45.325Z,101779.78
2018-09-26T01:03:20.972Z,101774.30
2018-09-26T01:04:56.448Z,101775.70
2018-09-26T01:06:31.958Z,101773.62
2018-09-26T01:08:07.476Z,101773.84
2018-09-26T01:09:42.968Z,101770.20
2018-09-26T01:11:18.564Z,101767.14
2018-09-26T01:12:54.238Z,101764.69
2018-09-26T01:14:29.850Z,101765.23
2018-09-26T01:16:05.540Z,101758.81
2018-09-26T01:17:40.996Z,101759.67
2018-09-26T01:19:16.523Z,101752.13
2018-09-26T01:20:52.076Z,101756.97
2018-09-26T01:22:27.575Z,101755.70
2018-09-26T01:24:03.178Z,101757.12
2018-09-26T01:25:38.670Z,101763.92
2018-09-26T01:27:14.229Z,101762.88
2018-09-26T01:28:49.763Z,101758.20
2018-09-26T01:30:25.249Z,101761.19
2018-09-26T01:32:00.869Z,101763.06
2018-09-26T01:33:36.369Z,101756.90
2018-09-26T01:35:11.956Z,101751.22
2018-09-26T01:36:47.462Z,101752.52
2018-09-26T01:38:23.052Z,101750.53
2018-09-26T01:39:58.882Z,101749.39
2018-09-26T01:41:34.494Z,101751.56
2018-09-26T01:43:09.985Z,101753.62
2018-09-26T01:44:45.531Z,101765.28
2018-09-26T01:46:20.980Z,101757.87
2018-09-26T01:47:56.523Z,101751.85
2018-09-26T01:49:32.096Z,101750.42
2018-09-26T01:51:07.680Z,101746.56
2018-09-26T01:52:43.208Z,101749.07
2018-09-26T01:54:18.757Z,101738.99
2018-09-26T01:55:54.328Z,101743.19
2018-09-26T01:57:30.090Z,101739.25
2018-09-26T01:59:05.612Z,101735.11
2018-09-26T02:00:41.119Z,101732.72
2018-09-26T02:02:16.622Z,101719.44
2018-09-26T02:03:52.153Z,101729.47
2018-09-26T02:05:27.634Z,101725.73
2018-09-26T02:07:03.140Z,101727.98
2018-09-26T02:08:38.651Z,101722.52
2018-09-26T02:10:14.381Z,101717.29
2018-09-26T02:11:49.912Z,101720.08
2018-09-26T02:13:25.357Z,101716.60
2018-09-26T02:15:00.861Z,101709.73
2018-09-26T02:16:36.348Z,101709.13
2018-09-26T02:18:11.889Z,101705.09
2018-09-26T02:19:47.421Z,101699.12
2018-09-26T02:21:22.917Z,101697.44
2018-09-26T02:22:58.404Z,101695.66
2018-09-26T02:24:33.921Z,101696.41
2018-09-26T02:26:09.583Z,101698.31
2018-09-26T02:27:45.251Z,101695.59
2018-09-26T02:29:20.744Z,101696.41
2018-09-26T02:30:56.308Z,101686.95
2018-09-26T02:32:31.806Z,101689.56
2018-09-26T02:34:07.286Z,101683.08
2018-09-26T02:35:42.803Z,101682.20
2018-09-26T02:37:18.275Z,101675.30
2018-09-26T02:38:53.805Z,101670.21
2018-09-26T02:40:29.287Z,101669.33
2018-09-26T02:42:05.046Z,101657.98
2018-09-26T02:43:40.548Z,101652.22
2018-09-26T02:45:16.051Z,101662.59
2018-09-26T02:46:51.536Z,101664.12
2018-09-26T02:48:32.483Z,101661.92
2018-09-26T02:50:07.966Z,101609.80
2018-09-26T02:51:43.468Z,101663.17
2018-09-26T02:53:18.989Z,101669.75
2018-09-26T02:54:54.631Z,101659.87
2018-09-26T02:56:30.158Z,101667.99
2018-09-26T02:58:05.676Z,101674.86
2018-09-26T02:59:41.171Z,101681.79
2018-09-26T03:01:16.683Z,101674.98
2018-09-26T03:02:52.194Z,101670.50
2018-09-26T03:04:27.708Z,101679.94
2018-09-26T03:06:03.267Z,101671.27
2018-09-26T03:07:38.775Z,101674.53
2018-09-26T03:09:14.337Z,101680.74
2018-09-26T03:10:49.919Z,101673.93
2018-09-26T03:12:25.458Z,101678.56
2018-09-26T03:14:01.100Z,101672.62
2018-09-26T03:15:36.649Z,101665.38
2018-09-26T03:17:12.227Z,101669.11
2018-09-26T03:18:47.806Z,101664.63
2018-09-26T03:20:23.339Z,101660.45
2018-09-26T03:21:58.813Z,101660.41
2018-09-26T03:23:34.299Z,101534.12
2018-09-26T03:25:09.967Z,101662.41
2018-09-26T03:26:45.500Z,101659.25
2018-09-26T03:28:20.989Z,101660.50
2018-09-26T03:29:56.472Z,101654.39
2018-09-26T03:31:32.085Z,101652.20
2018-09-26T03:33:07.603Z,101652.12
2018-09-26T03:34:43.191Z,101642.10
2018-09-26T03:36:18.739Z,101647.70
2018-09-26T03:37:54.277Z,101654.80
2018-09-26T03:39:29.741Z,101649.18
2018-09-26T03:41:05.271Z,101644.73
2018-09-26T03:42:40.792Z,101649.89
2018-09-26T03:44:16.429Z,101645.82
2018-09-26T03:45:52.027Z,101643.41
2018-09-26T03:47:27.561Z,101644.17
2018-09-26T03:49:03.051Z,101642.54
2018-09-26T03:50:38.593Z,101646.67
2018-09-26T03:52:14.115Z,101635.20
2018-09-26T03:53:49.674Z,101636.07
2018-09-26T03:55:25.207Z,101636.81
2018-09-26T03:57:00.945Z,101634.58
2018-09-26T03:58:36.439Z,101634.70
2018-09-26T04:00:11.981Z,101634.10
2018-09-26T04:01:47.465Z,101648.86
2018-09-26T04:03:29.673Z,101655.34
2018-09-26T04:05:05.352Z,101658.59
2018-09-26T04:06:41.172Z,101655.54
2018-09-26T04:08:17.023Z,101663.55
2018-09-26T04:09:52.611Z,101657.56
2018-09-26T04:11:28.229Z,101656.58
2018-09-26T04:13:03.815Z,101596.70
2018-09-26T04:14:39.287Z,101651.13
2018-09-26T04:16:14.824Z,101649.14
2018-09-26T04:17:50.395Z,101657.13
2018-09-26T04:19:26.046Z,101659.09
2018-09-26T04:21:01.522Z,101656.32
2018-09-26T04:22:37.012Z,101653.04
2018-09-26T04:24:12.568Z,101649.72
2018-09-26T04:25:48.110Z,101657.03
2018-09-26T04:27:23.806Z,101647.75
2018-09-26T04:28:59.263Z,101643.70
2018-09-26T04:30:34.800Z,101642.81
2018-09-26T04:32:10.335Z,101625.38
2018-09-26T04:33:46.205Z,101630.74
2018-09-26T04:35:21.519Z,101628.95
2018-09-26T04:36:58.081Z,101623.52
2018-09-26T04:38:33.697Z,101629.87
2018-09-26T04:40:09.160Z,101637.98
2018-09-26T04:41:44.681Z,101631.39
2018-09-26T04:43:20.246Z,101637.92
2018-09-26T04:44:56.005Z,101639.34
2018-09-26T04:46:31.549Z,101631.23
2018-09-26T04:48:08.052Z,101635.04
2018-09-26T04:49:43.619Z,101643.05
2018-09-26T04:51:19.167Z,101651.09
2018-09-26T04:52:54.921Z,101653.11
2018-09-26T04:54:30.695Z,101657.95
2018-09-26T04:56:06.324Z,101661.50
2018-09-26T04:57:41.921Z,101660.17
2018-09-26T04:59:17.484Z,101663.70
2018-09-26T05:00:53.188Z,101661.86
2018-09-26T05:02:28.733Z,101666.91
2018-09-26T05:04:04.196Z,101651.86
2018-09-26T05:05:39.717Z,101651.92
2018-09-26T05:07:15.286Z,101652.29
2018-09-26T05:08:50.993Z,101653.38
2018-09-26T05:10:26.512Z,101648.11
2018-09-26T05:12:02.225Z,101644.89
2018-09-26T05:13:38.066Z,101642.12
2018-09-26T05:15:13.788Z,101639.19
2018-09-26T05:16:49.335Z,101635.44
2018-09-26T05:18:24.951Z,101634.67
2018-09-26T05:20:00.484Z,101632.55
2018-09-26T05:21:36.381Z,101629.45
2018-09-26T05:23:11.958Z,101621.50
2018-09-26T05:24:47.624Z,101630.20
2018-09-26T05:26:23.100Z,101633.14
2018-09-26T05:27:58.675Z,101623.36
2018-09-26T05:29:34.270Z,101614.05
2018-09-26T05:31:09.998Z,101613.34
2018-09-26T05:32:45.803Z,101490.77
2018-09-26T05:34:21.311Z,101610.45
2018-09-26T05:35:57.673Z,101612.00
2018-09-26T05:37:33.220Z,101619.42
2018-09-26T05:39:10.165Z,101609.09
2018-09-26T05:40:45.850Z,101616.38
2018-09-26T05:42:21.405Z,101613.45
2018-09-26T05:43:57.904Z,101612.36
2018-09-26T05:45:33.456Z,101602.58
2018-09-26T05:47:09.452Z,101595.78
2018-09-26T05:48:45.421Z,101590.04
2018-09-26T05:50:20.942Z,101595.30
2018-09-26T05:51:56.529Z,101603.64
2018-09-26T05:53:32.088Z,101595.13
2018-09-26T05:55:07.745Z,101598.91
2018-09-26T05:56:43.367Z,101590.61
2018-09-26T05:58:18.903Z,101592.58
2018-09-26T05:59:54.414Z,101581.64
2018-09-26T06:01:29.964Z,101578.22
2018-09-26T06:03:05.592Z,101570.50
2018-09-26T06:04:41.161Z,101576.97
2018-09-26T06:06:16.702Z,101581.47
2018-09-26T06:07:52.351Z,101578.70
2018-09-26T06:09:27.906Z,101586.86
2018-09-26T06:11:03.417Z,101587.95
2018-09-26T06:12:38.886Z,101585.81
2018-09-26T06:14:14.602Z,101583.09
2018-09-26T06:15:50.092Z,101580.55
2018-09-26T06:17:25.558Z,101576.20
2018-09-26T06:19:01.037Z,101573.56
2018-09-26T06:20:36.558Z,101579.45
2018-09-26T06:22:12.137Z,101579.95
2018-09-26T06:23:47.668Z,101585.94
2018-09-26T06:25:23.187Z,101583.91
2018-09-26T06:26:58.746Z,101589.70
2018-09-26T06:28:34.303Z,101588.92
2018-09-26T06:30:10.047Z,101581.11
2018-09-26T06:31:45.625Z,101583.16
2018-09-26T06:33:21.144Z,101586.20
2018-09-26T06:34:56.704Z,101583.07
2018-09-26T06:36:32.178Z,101578.05
2018-09-26T06:38:07.707Z,101567.97
2018-09-26T06:39:43.211Z,101568.97
2018-09-26T06:41:18.733Z,101566.89
2018-09-26T06:42:54.432Z,101568.27
2018-09-26T06:44:30.030Z,101567.43
2018-09-26T06:46:05.627Z,101558.00
2018-09-26T06:47:43.536Z,101558.79
2018-09-26T06:49:19.102Z,101557.83
2018-09-26T06:50:54.593Z,101564.13
2018-09-26T06:52:30.083Z,101562.34
2018-09-26T06:54:05.795Z,101564.73
2018-09-26T06:55:41.410Z,101559.42
2018-09-26T06:57:17.048Z,101558.23
2018-09-26T06:58:52.560Z,101558.43
2018-09-26T07:00:28.190Z,101554.36
2018-09-26T07:02:03.815Z,101547.04
2018-09-26T07:03:39.345Z,101540.78
2018-09-26T07:05:14.897Z,101548.55
2018-09-26T07:06:50.431Z,101544.83
2018-09-26T07:08:26.053Z,101540.22
2018-09-26T07:10:01.625Z,101541.86
2018-09-26T07:11:37.275Z,101544.89
2018-09-26T07:13:12.794Z,101550.03
2018-09-26T07:14:48.375Z,101552.73
2018-09-26T07:16:23.960Z,101552.59
2018-09-26T07:17:59.520Z,101551.87
2018-09-26T07:19:35.081Z,101543.21
2018-09-26T07:21:10.669Z,101546.11
2018-09-26T07:22:46.281Z,101547.39
2018-09-26T07:24:21.881Z,101544.76
2018-09-26T07:25:57.432Z,101543.00
2018-09-26T07:27:33.003Z,101543.89
2018-09-26T07:29:08.928Z,101543.64
2018-09-26T07:30:44.477Z,101550.52
2018-09-26T07:32:20.074Z,101549.78
2018-09-26T07:33:55.606Z,101550.30
2018-09-26T07:35:31.160Z,101542.21
2018-09-26T07:37:07.047Z,101549.53
2018-09-26T07:38:42.652Z,101550.86
2018-09-26T07:40:18.228Z,101551.55
2018-09-26T07:41:53.808Z,101551.53
2018-09-26T07:43:29.348Z,101551.66
2018-09-26T07:45:05.222Z,101551.78
2018-09-26T07:46:40.795Z,101551.70
2018-09-26T07:48:16.341Z,101555.86
2018-09-26T07:49:51.961Z,101556.66
2018-09-26T07:51:27.481Z,101551.60
2018-09-26T07:53:03.015Z,101558.96
2018-09-26T07:54:38.537Z,101555.02
2018-09-26T07:56:14.246Z,101551.22
2018-09-26T07:57:49.743Z,101545.98
2018-09-26T07:59:25.391Z,101552.37
2018-09-26T08:01:00.967Z,101553.77
2018-09-26T08:02:36.519Z,101554.61
2018-09-26T08:04:12.109Z,101544.55
2018-09-26T08:05:47.750Z,101552.02
2018-09-26T08:07:23.275Z,101558.75
2018-09-26T08:08:58.820Z,101553.79
2018-09-26T08:10:34.373Z,101556.16
2018-09-26T08:12:10.067Z,101550.53
2018-09-26T08:13:45.574Z,101540.82
2018-09-26T08:15:21.199Z,101541.50
2018-09-26T08:16:56.829Z,101541.92
2018-09-26T08:18:32.576Z,101541.09
2018-09-26T08:20:08.039Z,101536.23
2018-09-26T08:21:43.666Z,101532.11
2018-09-26T08:23:19.195Z,101536.45
2018-09-26T08:24:54.904Z,101529.94
2018-09-26T08:26:30.443Z,101526.98
2018-09-26T08:28:06.019Z,101519.30
2018-09-26T08:29:41.927Z,101524.52
2018-09-26T08:31:17.506Z,101518.27
2018-09-26T08:32:53.074Z,101520.95
2018-09-26T08:34:28.657Z,101522.92
2018-09-26T08:36:04.135Z,101516.33
2018-09-26T08:37:39.647Z,101516.77
2018-09-26T08:39:15.321Z,101507.02
2018-09-26T08:40:50.911Z,101501.13
2018-09-26T08:42:26.533Z,101498.39
2018-09-26T08:44:02.146Z,101494.59
2018-09-26T08:45:37.659Z,101495.20
2018-09-26T08:47:13.321Z,101495.10
2018-09-26T08:48:48.913Z,101489.91
2018-09-26T08:50:24.393Z,101485.75
2018-09-26T08:51:59.961Z,101483.02
2018-09-26T08:53:35.533Z,101481.23
2018-09-26T08:55:11.088Z,101475.54
2018-09-26T08:56:46.593Z,101478.13
2018-09-26T08:58:22.184Z,101472.66
2018-09-26T08:59:57.843Z,101469.30
2018-09-26T09:01:38.888Z,101464.31
2018-09-26T09:03:14.520Z,101470.59
2018-09-26T09:04:50.162Z,101462.92
2018-09-26T09:06:25.729Z,101462.70
2018-09-26T09:08:01.696Z,101462.23
2018-09-26T09:09:37.335Z,101467.52
2018-09-26T09:11:13.684Z,101462.92
2018-09-26T09:12:49.192Z,101466.70
2018-09-26T09:14:24.808Z,101472.18
2018-09-26T09:16:00.279Z,101471.30
2018-09-26T09:17:35.993Z,101464.78
2018-09-26T09:19:11.514Z,101465.62
2018-09-26T09:20:47.030Z,101463.67
2018-09-26T09:22:22.559Z,101455.98
2018-09-26T09:23:58.042Z,101451.59
2018-09-26T09:25:33.503Z,101444.02
2018-09-26T09:27:09.079Z,101447.08
2018-09-26T09:28:44.529Z,101439.22
2018-09-26T09:30:19.974Z,101439.73
2018-09-26T09:31:55.466Z,101432.22
2018-09-26T09:33:31.066Z,101438.41
2018-09-26T09:35:06.662Z,101438.55
2018-09-26T09:36:42.305Z,101441.65
2018-09-26T09:38:18.350Z,101437.23
2018-09-26T09:39:53.856Z,101440.30
2018-09-26T09:41:29.389Z,101427.95
2018-09-26T09:43:04.964Z,101429.28
2018-09-26T09:44:40.773Z,101426.09
2018-09-26T09:46:16.326Z,101426.45
2018-09-26T09:47:51.864Z,101426.56
2018-09-26T09:49:27.408Z,101427.04
2018-09-26T09:51:02.969Z,101415.22
2018-09-26T09:52:38.516Z,101422.89
2018-09-26T09:54:14.129Z,101416.55
2018-09-26T09:55:51.206Z,101415.73
2018-09-26T09:57:26.806Z,101406.43
2018-09-26T09:59:02.287Z,101410.04
2018-09-26T10:00:43.286Z,101409.00
2018-09-26T10:02:18.789Z,101404.84
2018-09-26T10:03:54.437Z,101398.32
2018-09-26T10:05:29.895Z,101393.59
2018-09-26T10:07:05.403Z,101399.54
2018-09-26T10:08:40.961Z,101400.96
2018-09-26T10:10:16.422Z,101399.57
2018-09-26T10:11:51.929Z,101398.34
2018-09-26T10:13:27.461Z,101400.62
2018-09-26T10:15:03.214Z,101398.55
2018-09-26T10:16:38.731Z,101401.07
2018-09-26T10:18:14.457Z,101406.92
2018-09-26T10:19:49.956Z,101406.26
2018-09-26T10:21:26.499Z,101401.14
2018-09-26T10:23:02.021Z,101390.23
2018-09-26T10:24:37.513Z,101395.63
2018-09-26T10:26:13.116Z,101394.48
2018-09-26T10:27:48.538Z,101384.23
2018-09-26T10:29:24.035Z,101381.94
2018-09-26T10:30:59.545Z,101369.70
2018-09-26T10:32:35.190Z,101370.88
2018-09-26T10:34:10.713Z,101364.02
2018-09-26T10:35:46.252Z,101359.84
2018-09-26T10:37:22.445Z,101362.03
2018-09-26T10:38:58.362Z,101351.55
2018-09-26T10:40:33.836Z,101352.17
2018-09-26T10:42:09.312Z,101346.86
2018-09-26T10:43:44.872Z,101340.08
2018-09-26T10:45:20.367Z,101341.81
2018-09-26T10:46:55.869Z,101342.14
2018-09-26T10:48:31.433Z,101339.94
2018-09-26T10:50:07.363Z,101344.34
2018-09-26T10:51:42.958Z,101337.07
2018-09-26T10:53:18.459Z,101340.38
2018-09-26T10:54:53.999Z,101331.14
2018-09-26T10:56:29.611Z,101335.20
2018-09-26T10:58:05.100Z,101332.06
2018-09-26T10:59:40.613Z,101333.34
2018-09-26T11:01:16.294Z,101333.59
2018-09-26T11:02:51.833Z,101333.78
2018-09-26T11:04:27.374Z,101334.80
2018-09-26T11:06:02.933Z,101326.55
2018-09-26T11:07:38.423Z,101326.11
2018-09-26T11:09:13.957Z,101317.75
2018-09-26T11:10:49.468Z,101319.21
2018-09-26T11:12:25.034Z,101316.23
2018-09-26T11:14:00.546Z,101315.06
2018-09-26T11:15:36.175Z,101316.29
2018-09-26T11:17:11.873Z,101305.40
2018-09-26T11:18:47.524Z,101309.90
2018-09-26T11:20:23.161Z,101307.08
2018-09-26T11:21:58.755Z,101308.75
2018-09-26T11:23:34.353Z,101309.83
2018-09-26T11:25:09.968Z,101309.90
2018-09-26T11:26:45.561Z,101306.09
2018-09-26T11:28:21.208Z,101312.52
2018-09-26T11:29:56.712Z,101310.59
2018-09-26T11:31:32.316Z,101308.44
2018-09-26T11:33:07.868Z,101307.45
2018-09-26T11:34:43.458Z,101298.80
2018-09-26T11:36:19.036Z,101300.58
2018-09-26T11:37:54.657Z,101298.39
2018-09-26T11:39:30.326Z,101295.64
2018-09-26T11:41:05.918Z,101297.32
2018-09-26T11:42:41.498Z,101295.94
2018-09-26T11:44:17.059Z,101300.75
2018-09-26T11:45:52.589Z,101297.27
2018-09-26T11:47:28.149Z,101291.27
2018-09-26T11:49:03.744Z,101297.95
2018-09-26T11:50:39.387Z,101294.25
2018-09-26T11:52:15.055Z,101279.02
2018-09-26T11:53:50.543Z,101279.66
2018-09-26T11:55:26.733Z,101281.02
2018-09-26T11:57:02.310Z,101273.09
2018-09-26T11:58:37.875Z,101281.39
2018-09-26T12:00:13.389Z,101272.25
2018-09-26T12:01:48.891Z,101272.60
2018-09-26T12:03:24.494Z,101271.66
2018-09-26T12:05:00.013Z,101268.89
2018-09-26T12:06:35.668Z,101272.25
2018-09-26T12:08:11.249Z,101267.69
2018-09-26T12:09:46.915Z,101277.98
2018-09-26T12:11:22.507Z,101255.08
2018-09-26T12:12:58.055Z,101258.22
2018-09-26T12:14:33.593Z,101248.41
2018-09-26T12:16:09.295Z,101248.92
2018-09-26T12:17:44.865Z,101254.67
2018-09-26T12:19:20.515Z,101244.74
2018-09-26T12:20:56.115Z,101251.56
2018-09-26T12:22:31.808Z,101243.20
2018-09-26T12:24:07.599Z,101248.16
2018-09-26T12:25:43.149Z,101251.05
2018-09-26T12:27:18.712Z,101244.55
2018-09-26T12:28:54.258Z,101242.23
2018-09-26T12:30:29.815Z,101241.36
2018-09-26T12:32:05.367Z,101241.75
2018-09-26T12:33:40.986Z,101251.13
2018-09-26T12:35:16.520Z,101232.14
2018-09-26T12:36:52.095Z,101247.09
2018-09-26T12:38:27.659Z,101228.85
2018-09-26T12:40:03.145Z,101231.98
2018-09-26T12:41:38.758Z,101236.98
2018-09-26T12:43:14.529Z,101226.37
2018-09-26T12:44:50.093Z,101226.03
2018-09-26T12:46:25.732Z,101219.38
2018-09-26T12:48:01.303Z,101220.83
2018-09-26T12:49:37.288Z,101223.73
2018-09-26T12:51:12.853Z,101211.61
2018-09-26T12:52:48.381Z,101206.66
2018-09-26T12:54:24.139Z,101206.15
2018-09-26T12:56:00.849Z,101201.44
2018-09-26T12:57:36.530Z,101197.30
2018-09-26T12:59:12.008Z,101187.73
2018-09-26T13:00:47.507Z,101194.88
2018-09-26T13:02:23.010Z,101198.02
2018-09-26T13:03:58.467Z,101191.26
2018-09-26T13:05:34.052Z,101184.02
2018-09-26T13:07:09.629Z,101188.73
2018-09-26T13:08:45.063Z,101184.39
2018-09-26T13:10:20.693Z,101184.39
2018-09-26T13:11:56.745Z,101179.87
2018-09-26T13:13:32.197Z,101184.62
2018-09-26T13:15:07.687Z,101183.29
2018-09-26T13:16:43.204Z,101181.34
2018-09-26T13:18:19.044Z,101183.16
2018-09-26T13:19:54.475Z,101181.83
2018-09-26T13:21:29.939Z,101184.48
2018-09-26T13:23:05.495Z,101182.55
2018-09-26T13:24:41.034Z,101177.73
2018-09-26T13:26:16.518Z,101180.16
2018-09-26T13:27:51.978Z,101179.67
2018-09-26T13:29:27.534Z,101176.16
2018-09-26T13:31:03.118Z,101180.39
2018-09-26T13:32:38.632Z,101173.45
2018-09-26T13:34:14.316Z,101174.80
2018-09-26T13:35:49.811Z,101168.38
2018-09-26T13:37:25.332Z,101173.22
2018-09-26T13:39:00.941Z,101171.55
2018-09-26T13:40:36.431Z,101167.41
2018-09-26T13:42:12.083Z,101171.44
2018-09-26T13:43:47.593Z,101162.47
2018-09-26T13:45:23.221Z,101159.70
2018-09-26T13:46:58.745Z,101165.73
2018-09-26T13:48:34.354Z,101166.11
2018-09-26T13:50:09.919Z,101168.54
2018-09-26T13:51:45.598Z,101159.32
2018-09-26T13:53:21.106Z,101167.92
2018-09-26T13:54:56.683Z,101161.74
2018-09-26T13:56:32.298Z,101162.34
2018-09-26T13:58:07.825Z,101154.98
2018-09-26T13:59:43.326Z,101152.56
2018-09-26T14:01:18.875Z,101156.55
2018-09-26T14:02:54.406Z,101152.05
2018-09-26T14:04:29.914Z,101155.19
2018-09-26T14:06:05.419Z,101151.05
2018-09-26T14:07:40.903Z,101148.63
2018-09-26T14:09:16.526Z,101150.67
2018-09-26T14:10:52.156Z,101145.86
2018-09-26T14:12:27.641Z,101144.05
2018-09-26T14:14:03.131Z,101138.91
2018-09-26T14:15:38.633Z,101141.33
2018-09-26T14:17:14.237Z,101135.02
2018-09-26T14:18:49.752Z,101135.23
2018-09-26T14:20:42.255Z,101130.66
2018-09-26T14:22:18.007Z,101119.74
2018-09-26T14:23:53.725Z,101115.98
2018-09-26T14:25:29.505Z,101117.22
2018-09-26T14:27:05.292Z,101106.07
2018-09-26T14:28:41.113Z,101111.08
2018-09-26T14:30:16.991Z,101109.91
2018-09-26T14:31:52.768Z,101110.89
2018-09-26T14:33:28.736Z,101114.13
2018-09-26T14:35:19.056Z,101105.19
2018-09-26T14:36:54.834Z,101098.52
2018-09-26T14:38:30.578Z,101104.32
2018-09-26T14:40:07.895Z,101102.86
2018-09-26T14:41:43.680Z,101098.52
2018-09-26T14:43:19.590Z,101099.25
2018-09-26T14:44:55.376Z,101091.26
2018-09-26T14:46:31.155Z,101087.02
2018-09-26T14:48:06.909Z,101084.50
2018-09-26T14:49:42.729Z,101082.08
2018-09-26T14:51:19.459Z,101083.19
2018-09-26T14:52:55.259Z,101075.19
2018-09-26T14:54:30.962Z,101067.95
2018-09-26T14:56:06.774Z,101071.71
2018-09-26T14:57:42.470Z,101077.03
2018-09-26T14:59:18.216Z,101074.14
2018-09-26T15:00:55.559Z,101078.37
2018-09-26T15:02:31.380Z,101074.62
2018-09-26T15:04:07.367Z,101069.42
2018-09-26T15:05:43.145Z,101068.81
2018-09-26T15:07:18.975Z,101066.05
2018-09-26T15:08:54.684Z,101070.52
2018-09-26T15:10:30.467Z,101069.66
2018-09-26T15:12:07.393Z,101062.62
2018-09-26T15:13:43.077Z,101063.11
2018-09-26T15:15:18.855Z,101057.55
2018-09-26T15:16:54.614Z,101053.81
2018-09-26T15:18:30.363Z,101053.56
2018-09-26T15:20:06.600Z,101051.01
2018-09-26T15:21:42.338Z,101048.84
2018-09-26T15:23:18.175Z,101044.72
2018-09-26T15:24:53.944Z,101049.77
2018-09-26T15:26:29.692Z,101052.23
2018-09-26T15:28:05.529Z,101050.78
2018-09-26T15:29:41.247Z,101051.98
2018-09-26T15:31:17.622Z,101052.91
2018-09-26T15:32:53.428Z,101049.45
2018-09-26T15:34:29.165Z,101043.45
2018-09-26T15:36:05.683Z,101049.41
2018-09-26T15:37:41.449Z,101048.67
2018-09-26T15:39:17.193Z,101046.02
2018-09-26T15:40:52.994Z,101049.67
2018-09-26T15:42:28.758Z,101047.59
2018-09-26T15:44:04.645Z,101047.75
2018-09-26T15:45:40.393Z,101048.95
2018-09-26T15:47:16.145Z,101042.73
2018-09-26T15:48:51.913Z,101035.73
2018-09-26T15:50:27.670Z,101039.42
2018-09-26T15:52:03.425Z,101042.91
2018-09-26T15:53:39.250Z,101042.66
2018-09-26T15:55:15.032Z,101039.60
2018-09-26T15:56:51.057Z,101044.17
2018-09-26T15:58:26.853Z,101052.34
2018-09-26T16:00:02.682Z,101056.72
2018-09-26T16:01:38.497Z,101060.73
2018-09-26T16:03:14.194Z,101054.39
2018-09-26T16:04:49.752Z,101061.09
2018-09-26T16:06:25.409Z,101062.98
2018-09-26T16:08:00.911Z,101059.33
2018-09-26T16:09:36.402Z,101060.93
2018-09-26T16:11:12.333Z,101059.44
2018-09-26T16:12:47.876Z,101067.27
2018-09-26T16:14:23.411Z,101057.59
2018-09-26T16:15:59.068Z,101056.91
2018-09-26T16:17:34.646Z,101059.82
2018-09-26T16:19:10.263Z,101057.13
2018-09-26T16:20:46.101Z,101057.47
2018-09-26T16:22:21.766Z,101060.11
2018-09-26T16:23:57.256Z,101064.19
2018-09-26T16:25:32.909Z,101062.81
2018-09-26T16:27:08.389Z,101064.26
2018-09-26T16:28:43.916Z,101067.64
2018-09-26T16:30:19.485Z,101070.25
2018-09-26T16:31:55.021Z,101069.18
2018-09-26T16:33:30.574Z,101080.59
2018-09-26T16:35:07.432Z,101075.16
2018-09-26T16:36:42.984Z,101075.42
2018-09-26T16:38:18.520Z,101081.86
2018-09-26T16:39:54.048Z,101078.61
2018-09-26T16:41:29.605Z,101076.08
2018-09-26T16:43:05.178Z,101077.17
2018-09-26T16:44:40.695Z,101074.57
2018-09-26T16:46:16.267Z,101073.05
2018-09-26T16:47:51.869Z,101078.67
2018-09-26T16:49:27.403Z,101070.23
2018-09-26T16:51:02.932Z,101073.10
2018-09-26T16:52:38.432Z,101072.52
2018-09-26T16:54:14.091Z,101070.92
2018-09-26T16:55:49.729Z,101068.00
2018-09-26T16:57:25.316Z,101063.29
2018-09-26T16:59:00.984Z,101068.00
2018-09-26T17:00:36.563Z,101066.06
2018-09-26T17:02:12.148Z,101063.27
2018-09-26T17:03:47.777Z,101065.72
2018-09-26T17:05:23.543Z,101063.81
2018-09-26T17:06:59.117Z,101074.41
2018-09-26T17:08:34.680Z,101076.75
2018-09-26T17:10:10.169Z,101074.33
2018-09-26T17:11:45.996Z,101021.55
2018-09-26T17:13:22.062Z,101076.88
2018-09-26T17:14:57.611Z,101078.31
2018-09-26T17:16:33.221Z,101077.31
2018-09-26T17:18:08.934Z,101070.98
2018-09-26T17:19:44.546Z,101076.00
2018-09-26T17:21:20.374Z,101076.50
2018-09-26T17:22:56.196Z,101080.14
2018-09-26T17:24:31.771Z,101073.47
2018-09-26T17:26:07.364Z,101078.56
2018-09-26T17:27:42.920Z,101078.67
2018-09-26T17:29:18.587Z,101071.28
2018-09-26T17:30:54.353Z,101072.98
2018-09-26T17:32:30.392Z,101075.34
2018-09-26T17:34:06.137Z,101074.12
2018-09-26T17:35:42.104Z,101069.41
2018-09-26T17:37:17.682Z,101067.98
2018-09-26T17:38:53.238Z,101064.11
2018-09-26T17:40:28.981Z,101066.65
2018-09-26T17:42:04.651Z,101066.58
2018-09-26T17:43:40.111Z,101070.34
2018-09-26T17:45:15.738Z,101071.96
2018-09-26T17:46:51.619Z,101071.87
2018-09-26T17:48:27.305Z,101074.30
2018-09-26T17:50:02.818Z,101074.30
2018-09-26T17:51:38.372Z,101083.20
2018-09-26T17:53:17.421Z,101087.52
2018-09-26T17:54:52.928Z,101088.27
2018-09-26T17:56:28.950Z,101091.19
2018-09-26T17:58:04.517Z,101089.29
2018-09-26T17:59:40.116Z,101089.75
2018-09-26T18:01:15.689Z,101093.61
2018-09-26T18:02:51.241Z,101099.07
2018-09-26T18:04:26.911Z,101102.21
2018-09-26T18:06:02.512Z,101093.66
2018-09-26T18:07:38.053Z,101098.77
2018-09-26T18:09:13.942Z,101105.29
2018-09-26T18:10:49.480Z,101103.27
2018-09-26T18:12:25.076Z,101104.66